createdAt,value
2022-09-09T00:01:32.587Z,16.17
2022-09-09T00:04:07.142Z,15.93
2022-09-09T00:06:45.117Z,15.95
2022-09-09T00:09:16.960Z,18.90
2022-09-09T00:11:50.061Z,15.27
2022-09-09T00:14:29.437Z,15.38
2022-09-09T00:17:05.762Z,16.17
2022-09-09T00:19:44.590Z,16.63
2022-09-09T00:22:18.543Z,16.25
2022-09-09T00:24:49.103Z,15.88
2022-09-09T00:27:26.452Z,16.55
2022-09-09T00:30:00.090Z,15.52
2022-09-09T00:32:32.264Z,16.60
2022-09-09T00:35:06.403Z,15.60
2022-09-09T00:37:36.810Z,20.30
2022-09-09T00:40:18.507Z,20.20
2022-09-09T00:42:47.420Z,19.88
2022-09-09T00:45:37.198Z,20.38
2022-09-09T00:48:10.942Z,20.50
2022-09-09T00:50:47.309Z,19.55
2022-09-09T00:53:30.334Z,20.77
2022-09-09T00:56:09.566Z,22.10
2022-09-09T00:58:38.312Z,23.58
2022-09-09T01:01:14.082Z,21.58
2022-09-09T01:03:48.881Z,17.95
2022-09-09T01:06:20.307Z,19.98
2022-09-09T01:09:05.942Z,20.33
2022-09-09T01:11:40.983Z,20.13
2022-09-09T01:14:21.746Z,21.00
2022-09-09T01:16:55.806Z,21.60
2022-09-09T01:19:36.181Z,21.50
2022-09-09T01:22:14.578Z,20.40
2022-09-09T01:25:06.275Z,23.40
2022-09-09T01:28:10.726Z,19.98
2022-09-09T01:30:42.766Z,19.98
2022-09-09T01:33:17.456Z,20.42
2022-09-09T01:35:51.831Z,19.05
2022-09-09T01:38:21.608Z,18.63
2022-09-09T01:40:54.255Z,19.40
2022-09-09T01:43:30.274Z,20.02
2022-09-09T01:46:02.495Z,22.08
2022-09-09T01:48:32.526Z,21.05
2022-09-09T01:51:05.607Z,23.92
2022-09-09T01:53:34.640Z,21.00
2022-09-09T01:56:12.856Z,22.98
2022-09-09T01:58:59.878Z,19.90
2022-09-09T02:01:42.371Z,24.20
2022-09-09T02:04:18.063Z,19.42
2022-09-09T02:06:50.276Z,19.65
2022-09-09T02:09:31.261Z,19.50
2022-09-09T02:12:07.420Z,20.40
2022-09-09T02:14:52.597Z,22.45
2022-09-09T02:17:29.196Z,20.95
2022-09-09T02:20:08.165Z,20.73
2022-09-09T02:22:52.248Z,20.42
2022-09-09T02:25:24.754Z,20.40
2022-09-09T02:27:55.801Z,18.58
2022-09-09T02:30:26.324Z,21.88
2022-09-09T02:33:00.674Z,23.45
2022-09-09T02:35:44.007Z,23.75
2022-09-09T02:38:15.878Z,27.35
2022-09-09T02:40:53.430Z,27.73
2022-09-09T02:43:22.142Z,28.67
2022-09-09T02:46:03.725Z,28.60
2022-09-09T02:48:39.369Z,23.02
2022-09-09T02:51:13.351Z,22.38
2022-09-09T02:53:46.916Z,21.60
2022-09-09T02:56:19.059Z,18.17
2022-09-09T02:58:52.961Z,20.52
2022-09-09T03:01:23.596Z,22.20
2022-09-09T03:03:52.738Z,22.90
2022-09-09T03:06:21.441Z,18.83
2022-09-09T03:08:56.178Z,19.85
2022-09-09T03:11:28.024Z,20.33
2022-09-09T03:13:57.959Z,19.33
2022-09-09T03:16:29.953Z,18.17
2022-09-09T03:18:58.574Z,17.95
2022-09-09T03:21:27.422Z,21.27
2022-09-09T03:23:58.247Z,21.05
2022-09-09T03:26:27.079Z,19.92
2022-09-09T03:28:55.711Z,25.50
2022-09-09T03:31:26.508Z,22.15
2022-09-09T03:33:56.870Z,21.55
2022-09-09T03:36:27.277Z,21.75
2022-09-09T03:38:56.246Z,22.05
2022-09-09T03:41:27.482Z,24.80
2022-09-09T03:43:56.713Z,21.35
2022-09-09T03:46:28.593Z,24.48
2022-09-09T03:48:59.448Z,25.30
2022-09-09T03:51:28.230Z,22.50
2022-09-09T03:53:57.866Z,24.40
2022-09-09T03:56:26.515Z,27.65
2022-09-09T03:58:55.675Z,23.90
2022-09-09T04:01:24.217Z,23.10
2022-09-09T04:03:53.675Z,23.63
2022-09-09T04:06:23.671Z,21.77
2022-09-09T04:08:53.274Z,23.05
2022-09-09T04:11:22.789Z,22.33
2022-09-09T04:13:54.303Z,20.38
2022-09-09T04:16:23.273Z,22.70
2022-09-09T04:18:52.127Z,22.42
2022-09-09T04:21:20.777Z,24.60
2022-09-09T04:23:50.911Z,20.33
2022-09-09T04:26:20.258Z,19.98
2022-09-09T04:28:48.746Z,21.13
2022-09-09T04:31:24.392Z,17.58
2022-09-09T04:33:55.908Z,19.38
2022-09-09T04:36:24.915Z,25.30
2022-09-09T04:38:58.733Z,22.92
2022-09-09T04:41:27.649Z,20.20
2022-09-09T04:43:56.981Z,19.75
2022-09-09T04:46:26.341Z,22.50
2022-09-09T04:48:55.473Z,19.13
2022-09-09T04:51:29.231Z,18.80
2022-09-09T04:53:59.225Z,19.60
2022-09-09T04:56:29.206Z,19.40
2022-09-09T04:59:00.446Z,21.73
2022-09-09T05:01:39.290Z,22.20
2022-09-09T05:04:07.959Z,24.02
2022-09-09T05:06:37.310Z,28.40
2022-09-09T05:09:08.129Z,26.75
2022-09-09T05:11:37.783Z,32.65
2022-09-09T05:14:29.159Z,31.70
2022-09-09T05:16:59.043Z,25.60
2022-09-09T05:19:27.538Z,25.55
2022-09-09T05:21:56.767Z,29.05
2022-09-09T05:24:38.644Z,30.60
2022-09-09T05:27:07.369Z,27.25
2022-09-09T05:29:35.971Z,25.60
2022-09-09T05:32:06.769Z,30.20
2022-09-09T05:34:38.544Z,33.30
2022-09-09T05:37:08.697Z,29.05
2022-09-09T05:39:39.232Z,31.42
2022-09-09T05:42:08.372Z,35.85
2022-09-09T05:44:38.293Z,29.17
2022-09-09T05:47:09.128Z,40.58
2022-09-09T05:49:37.921Z,27.95
2022-09-09T05:52:07.437Z,29.63
2022-09-09T05:54:38.874Z,28.15
2022-09-09T05:57:07.438Z,24.75
2022-09-09T05:59:35.995Z,26.52
2022-09-09T06:02:05.108Z,34.85
2022-09-09T06:04:37.762Z,35.42
2022-09-09T06:07:06.938Z,31.10
2022-09-09T06:09:35.661Z,29.08
2022-09-09T06:12:06.358Z,30.02
2022-09-09T06:14:37.837Z,26.67
2022-09-09T06:17:07.180Z,26.38
2022-09-09T06:19:35.625Z,26.02
2022-09-09T06:22:04.469Z,27.40
2022-09-09T06:24:36.602Z,25.92
2022-09-09T06:27:08.314Z,24.08
2022-09-09T06:29:38.934Z,27.33
2022-09-09T06:32:09.519Z,23.17
2022-09-09T06:34:38.017Z,25.48
2022-09-09T06:37:07.599Z,23.05
2022-09-09T06:39:44.273Z,21.33
2022-09-09T06:42:14.308Z,24.98
2022-09-09T06:44:54.328Z,20.65
2022-09-09T06:47:45.589Z,25.25
2022-09-09T06:50:14.070Z,19.55
2022-09-09T06:52:42.546Z,20.15
2022-09-09T06:55:12.022Z,18.67
2022-09-09T06:57:42.350Z,17.20
2022-09-09T07:00:16.347Z,15.27
2022-09-09T07:02:45.357Z,16.30
2022-09-09T07:05:16.378Z,17.75
2022-09-09T07:07:46.389Z,15.05
2022-09-09T07:10:17.156Z,14.65
2022-09-09T07:12:53.695Z,13.43
2022-09-09T07:15:23.938Z,13.88
2022-09-09T07:17:53.809Z,13.93
2022-09-09T07:20:23.429Z,14.07
2022-09-09T07:22:56.669Z,12.43
2022-09-09T07:25:25.218Z,13.02
2022-09-09T07:27:55.640Z,13.35
2022-09-09T07:30:27.819Z,11.80
2022-09-09T07:32:58.286Z,13.82
2022-09-09T07:35:27.971Z,13.00
2022-09-09T07:37:57.145Z,12.93
2022-09-09T07:40:26.015Z,11.23
2022-09-09T07:42:56.951Z,11.63
2022-09-09T07:45:25.506Z,12.80
2022-09-09T07:47:54.537Z,13.20
2022-09-09T07:50:23.953Z,11.90
2022-09-09T07:52:54.593Z,11.60
2022-09-09T07:55:26.471Z,13.18
2022-09-09T07:57:58.495Z,11.27
2022-09-09T08:00:29.536Z,12.65
2022-09-09T08:03:02.015Z,12.35
2022-09-09T08:05:31.380Z,12.75
2022-09-09T08:08:00.115Z,12.40
2022-09-09T08:10:29.247Z,12.43
2022-09-09T08:13:17.401Z,13.32
2022-09-09T08:15:47.337Z,12.27
2022-09-09T08:18:16.436Z,12.45
2022-09-09T08:20:46.654Z,11.25
2022-09-09T08:23:15.198Z,12.30
2022-09-09T08:25:43.674Z,11.77
2022-09-09T08:28:13.529Z,10.20
2022-09-09T08:30:42.129Z,10.50
2022-09-09T08:33:11.602Z,9.80
2022-09-09T08:35:40.334Z,7.95
2022-09-09T08:38:11.070Z,7.25
2022-09-09T08:40:45.613Z,7.50
2022-09-09T08:43:18.465Z,8.23
2022-09-09T08:45:52.716Z,9.80
2022-09-09T08:48:38.834Z,7.22
2022-09-09T08:51:08.338Z,7.68
2022-09-09T08:53:44.584Z,7.82
2022-09-09T08:56:19.266Z,6.80
2022-09-09T08:58:53.743Z,7.18
2022-09-09T09:01:48.172Z,7.60
2022-09-09T09:04:40.596Z,8.68
2022-09-09T09:07:22.089Z,6.97
2022-09-09T09:09:59.772Z,6.65
2022-09-09T09:12:31.911Z,6.25
2022-09-09T09:15:03.003Z,6.40
2022-09-09T09:17:34.324Z,7.57
2022-09-09T09:20:05.587Z,7.32
2022-09-09T09:22:42.234Z,5.13
2022-09-09T09:25:18.945Z,4.97
2022-09-09T09:27:55.992Z,5.55
2022-09-09T09:30:31.390Z,5.57
2022-09-09T09:33:16.656Z,5.68
2022-09-09T09:35:45.387Z,4.72
2022-09-09T09:41:10.353Z,6.10
2022-09-09T09:43:42.736Z,4.78
2022-09-09T09:46:24.649Z,4.32
2022-09-09T09:49:02.231Z,4.10
2022-09-09T09:51:33.599Z,4.50
2022-09-09T09:54:19.691Z,3.85
2022-09-09T09:56:53.959Z,5.72
2022-09-09T09:59:38.810Z,5.47
2022-09-09T10:02:16.554Z,4.40
2022-09-09T10:04:47.359Z,3.92
2022-09-09T10:07:21.362Z,4.63
2022-09-09T10:09:55.499Z,4.05
2022-09-09T10:12:36.491Z,3.40
2022-09-09T10:15:16.789Z,4.70
2022-09-09T10:17:56.967Z,4.07
2022-09-09T10:20:36.230Z,4.45
2022-09-09T10:23:17.400Z,2.85
2022-09-09T10:26:02.824Z,3.92
2022-09-09T10:28:44.272Z,4.15
2022-09-09T10:31:23.833Z,3.05
2022-09-09T10:34:08.043Z,3.80
2022-09-09T10:36:40.248Z,3.75
2022-09-09T10:39:26.577Z,4.30
2022-09-09T10:42:06.043Z,2.92
2022-09-09T10:45:00.610Z,4.47
2022-09-09T10:47:51.308Z,3.15
2022-09-09T10:51:07.058Z,2.85
2022-09-09T10:53:44.038Z,6.25
2022-09-09T10:56:16.098Z,2.88
2022-09-09T10:58:50.182Z,2.55
2022-09-09T11:01:22.812Z,2.42
2022-09-09T11:03:57.543Z,8.07
2022-09-09T11:06:34.687Z,3.13
2022-09-09T11:09:06.222Z,3.22
2022-09-09T11:11:40.206Z,3.10
2022-09-09T11:14:17.251Z,2.33
2022-09-09T11:16:51.936Z,2.95
2022-09-09T11:19:27.708Z,3.08
2022-09-09T11:21:58.951Z,1.98
2022-09-09T11:24:33.216Z,4.47
2022-09-09T11:27:07.722Z,2.70
2022-09-09T11:29:54.834Z,2.22
2022-09-09T11:32:47.747Z,2.72
2022-09-09T11:35:34.481Z,3.10
2022-09-09T11:38:20.626Z,2.45
2022-09-09T11:40:55.931Z,1.50
2022-09-09T11:43:28.657Z,1.85
2022-09-09T11:46:01.130Z,2.45
2022-09-09T11:48:35.462Z,2.95
2022-09-09T11:51:12.080Z,2.67
2022-09-09T11:53:56.043Z,2.95
2022-09-09T11:56:31.737Z,3.53
2022-09-09T11:59:04.339Z,1.92
2022-09-09T12:01:45.148Z,4.10
2022-09-09T12:04:32.208Z,1.58
2022-09-09T12:07:03.542Z,3.38
2022-09-09T12:09:47.231Z,1.02
2022-09-09T12:12:31.385Z,2.00
2022-09-09T12:15:21.898Z,3.67
2022-09-09T12:17:52.864Z,2.20
2022-09-09T12:20:24.634Z,2.92
2022-09-09T12:23:13.318Z,1.85
2022-09-09T12:25:54.199Z,3.05
2022-09-09T12:28:26.957Z,3.28
2022-09-09T12:31:02.733Z,2.97
2022-09-09T12:33:37.602Z,1.60
2022-09-09T12:36:13.245Z,1.77
2022-09-09T12:38:43.885Z,4.93
2022-09-09T12:41:22.890Z,3.50
2022-09-09T12:43:52.360Z,2.05
2022-09-09T12:46:37.236Z,3.17
2022-09-09T12:49:07.437Z,1.98
2022-09-09T12:51:36.606Z,2.15
2022-09-09T12:54:05.763Z,2.88
2022-09-09T12:56:36.330Z,1.15
2022-09-09T12:59:04.880Z,3.20
2022-09-09T13:01:35.174Z,1.77
2022-09-09T13:04:05.276Z,2.63
2022-09-09T13:06:35.195Z,1.85
2022-09-09T13:09:04.967Z,2.35
2022-09-09T13:11:41.067Z,2.83
2022-09-09T13:14:19.301Z,3.15
2022-09-09T13:16:57.987Z,2.05
2022-09-09T13:19:28.845Z,1.63
2022-09-09T13:21:57.925Z,1.10
2022-09-09T13:24:31.265Z,2.30
2022-09-09T13:27:03.109Z,1.70
2022-09-09T13:29:32.310Z,1.45
2022-09-09T13:32:07.215Z,2.38
2022-09-09T13:34:37.542Z,1.63
2022-09-09T13:37:08.448Z,1.40
2022-09-09T13:39:39.136Z,1.98
2022-09-09T13:42:26.346Z,3.35
2022-09-09T13:44:56.624Z,2.05
2022-09-09T13:47:32.411Z,3.35
2022-09-09T13:50:01.061Z,0.98
2022-09-09T13:52:32.141Z,4.35
2022-09-09T13:55:00.602Z,4.18
2022-09-09T13:57:30.454Z,3.78
2022-09-09T14:00:05.021Z,1.77
2022-09-09T14:02:34.795Z,3.88
2022-09-09T14:05:03.429Z,3.13
2022-09-09T14:07:33.040Z,2.65
2022-09-09T14:10:01.606Z,4.43
2022-09-09T14:12:31.482Z,3.03
2022-09-09T14:15:00.301Z,7.65
2022-09-09T14:17:32.163Z,2.15
2022-09-09T14:20:01.141Z,3.80
2022-09-09T14:22:29.614Z,1.10
2022-09-09T14:24:58.552Z,1.77
2022-09-09T14:27:27.951Z,2.92
2022-09-09T14:29:58.694Z,2.85
2022-09-09T14:32:27.549Z,2.40
2022-09-09T14:34:56.134Z,3.25
2022-09-09T14:37:24.989Z,1.52
2022-09-09T14:39:53.851Z,4.50
2022-09-09T14:42:23.390Z,2.45
2022-09-09T14:44:52.085Z,2.40
2022-09-09T14:47:22.202Z,1.45
2022-09-09T14:49:51.444Z,1.42
2022-09-09T14:52:19.886Z,2.28
2022-09-09T14:54:48.401Z,2.38
2022-09-09T14:57:16.862Z,1.73
2022-09-09T14:59:45.811Z,2.83
2022-09-09T15:02:15.295Z,2.78
2022-09-09T15:04:45.178Z,2.72
2022-09-09T15:07:13.882Z,2.25
2022-09-09T15:09:42.349Z,2.70
2022-09-09T15:12:10.938Z,2.22
2022-09-09T15:14:39.378Z,4.32
2022-09-09T15:17:07.909Z,3.05
2022-09-09T15:19:37.622Z,1.27
2022-09-09T15:22:08.417Z,1.10
2022-09-09T15:24:38.117Z,1.08
2022-09-09T15:27:06.688Z,2.58
2022-09-09T15:29:35.179Z,2.30
2022-09-09T15:32:04.038Z,1.42
2022-09-09T15:34:32.508Z,2.35
2022-09-09T15:37:01.922Z,5.07
2022-09-09T15:39:35.619Z,1.50
2022-09-09T15:42:08.051Z,1.50
2022-09-09T15:44:43.461Z,1.88
2022-09-09T15:47:14.496Z,2.20
2022-09-09T15:49:43.167Z,1.25
2022-09-09T15:52:12.626Z,1.42
2022-09-09T15:54:44.037Z,0.93
2022-09-09T15:57:15.309Z,2.55
2022-09-09T15:59:46.277Z,3.50
2022-09-09T16:02:14.807Z,1.45
2022-09-09T16:04:43.352Z,3.00
2022-09-09T16:07:11.857Z,2.30
2022-09-09T16:09:40.643Z,1.88
2022-09-09T16:12:13.148Z,1.48
2022-09-09T16:14:41.843Z,2.88
2022-09-09T16:17:11.243Z,1.95
2022-09-09T16:19:39.946Z,3.60
2022-09-09T16:22:09.473Z,3.75
2022-09-09T16:24:38.095Z,2.53
2022-09-09T16:27:07.676Z,2.78
2022-09-09T16:29:37.554Z,2.00
2022-09-09T16:32:06.616Z,5.80
2022-09-09T16:34:35.081Z,2.00
2022-09-09T16:37:03.931Z,3.05
2022-09-09T16:39:32.580Z,3.60
2022-09-09T16:42:01.318Z,2.65
2022-09-09T16:44:30.148Z,1.75
2022-09-09T16:47:01.267Z,2.20
2022-09-09T16:49:30.212Z,6.50
2022-09-09T16:52:01.820Z,3.90
2022-09-09T16:54:30.477Z,4.70
2022-09-09T16:56:59.546Z,3.67
2022-09-09T16:59:28.491Z,3.05
2022-09-09T17:01:57.030Z,3.05
2022-09-09T17:04:29.531Z,4.13
2022-09-09T17:07:01.267Z,4.35
2022-09-09T17:09:32.260Z,7.00
2022-09-09T17:12:01.872Z,3.67
2022-09-09T17:14:32.084Z,3.47
2022-09-09T17:17:18.871Z,2.40
2022-09-09T17:19:51.425Z,3.80
2022-09-09T17:22:20.847Z,3.85
2022-09-09T17:24:49.516Z,3.45
2022-09-09T17:27:18.125Z,4.38
2022-09-09T17:29:46.983Z,2.92
2022-09-09T17:32:16.158Z,2.50
2022-09-09T17:34:44.871Z,3.90
2022-09-09T17:37:14.706Z,4.90
2022-09-09T17:39:43.287Z,4.97
2022-09-09T17:42:11.801Z,4.78
2022-09-09T17:44:41.014Z,4.93
2022-09-09T17:47:09.964Z,10.30
2022-09-09T17:49:38.977Z,7.05
2022-09-09T17:52:07.452Z,10.25
2022-09-09T17:54:37.798Z,5.15
2022-09-09T17:57:07.555Z,8.25
2022-09-09T17:59:36.050Z,8.65
2022-09-09T18:02:05.562Z,5.72
2022-09-09T18:04:34.082Z,8.20
2022-09-09T18:07:02.597Z,7.22
2022-09-09T18:09:31.024Z,10.02
2022-09-09T18:12:01.692Z,9.18
2022-09-09T18:14:32.330Z,9.45
2022-09-09T18:17:02.003Z,6.13
2022-09-09T18:19:32.871Z,8.52
2022-09-09T18:22:02.818Z,7.07
2022-09-09T18:24:32.972Z,8.43
2022-09-09T18:27:02.988Z,9.13
2022-09-09T18:29:31.659Z,11.20
2022-09-09T18:32:00.137Z,6.78
2022-09-09T18:34:30.222Z,7.07
2022-09-09T18:36:58.940Z,8.13
2022-09-09T18:39:29.783Z,7.97
2022-09-09T18:42:00.617Z,8.57
2022-09-09T18:44:34.432Z,11.45
2022-09-09T18:47:04.354Z,14.00
2022-09-09T18:49:33.609Z,8.48
2022-09-09T18:52:03.301Z,8.82
2022-09-09T18:54:33.532Z,7.82
2022-09-09T18:57:02.679Z,7.03
2022-09-09T18:59:32.715Z,7.70
2022-09-09T19:02:01.698Z,9.18
2022-09-09T19:04:31.698Z,7.28
2022-09-09T19:07:00.420Z,7.32
2022-09-09T19:09:31.726Z,8.27
2022-09-09T19:12:01.306Z,11.93
2022-09-09T19:14:30.576Z,8.00
2022-09-09T19:17:01.129Z,8.23
2022-09-09T19:19:31.877Z,8.00
2022-09-09T19:22:00.788Z,8.23
2022-09-09T19:24:33.010Z,10.68
2022-09-09T19:27:04.428Z,12.00
2022-09-09T19:29:35.059Z,11.00
2022-09-09T19:34:53.645Z,8.98
2022-09-09T19:37:22.474Z,8.60
2022-09-09T19:39:51.363Z,10.70
2022-09-09T19:42:19.963Z,10.30
2022-09-09T19:44:49.379Z,7.90
2022-09-09T19:47:20.270Z,8.50
2022-09-09T19:49:50.443Z,7.32
2022-09-09T19:52:19.666Z,7.07
2022-09-09T19:54:48.209Z,7.60
2022-09-09T19:57:16.686Z,7.50
2022-09-09T19:59:45.139Z,8.18
2022-09-09T20:02:15.610Z,11.43
2022-09-09T20:04:45.930Z,7.25
2022-09-09T20:07:14.827Z,7.15
2022-09-09T20:09:43.333Z,7.72
2022-09-09T20:12:12.076Z,8.80
2022-09-09T20:14:40.570Z,9.50
2022-09-09T20:17:10.112Z,8.02
2022-09-09T20:19:39.931Z,10.70
2022-09-09T20:22:11.221Z,9.98
2022-09-09T20:24:39.974Z,8.07
2022-09-09T20:27:09.351Z,7.20
2022-09-09T20:29:38.421Z,9.40
2022-09-09T20:32:07.238Z,7.88
2022-09-09T20:34:35.756Z,9.18
2022-09-09T20:37:04.853Z,8.82
2022-09-09T20:39:36.009Z,10.40
2022-09-09T20:42:05.263Z,8.15
2022-09-09T20:44:33.730Z,8.23
2022-09-09T20:47:06.468Z,9.38
2022-09-09T20:49:36.191Z,8.05
2022-09-09T20:52:06.944Z,9.25
2022-09-09T20:54:38.733Z,11.75
2022-09-09T20:57:08.561Z,8.75
2022-09-09T20:59:37.169Z,9.13
2022-09-09T21:02:06.438Z,8.73
2022-09-09T21:04:36.081Z,11.10
2022-09-09T21:07:04.761Z,12.65
2022-09-09T21:09:33.203Z,12.70
2022-09-09T21:12:03.475Z,12.73
2022-09-09T21:14:32.643Z,14.98
2022-09-09T21:17:01.102Z,15.73
2022-09-09T21:19:29.580Z,14.43
2022-09-09T21:21:58.928Z,11.18
2022-09-09T21:24:27.717Z,12.25
2022-09-09T21:26:56.614Z,11.27
2022-09-09T21:29:26.699Z,10.25
2022-09-09T21:31:55.779Z,9.85
2022-09-09T21:34:24.394Z,13.40
2022-09-09T21:36:53.467Z,9.50
2022-09-09T21:39:22.626Z,11.07
2022-09-09T21:41:51.140Z,8.98
2022-09-09T21:44:21.047Z,10.23
2022-09-09T21:46:50.885Z,11.07
2022-09-09T21:49:19.370Z,9.13
2022-09-09T21:51:48.011Z,9.88
2022-09-09T21:54:16.825Z,9.23
2022-09-09T21:56:45.295Z,9.52
2022-09-09T21:59:13.798Z,10.32
2022-09-09T22:01:43.125Z,10.02
2022-09-09T22:04:13.056Z,9.95
2022-09-09T22:06:41.657Z,12.20
2022-09-09T22:09:10.355Z,9.15
2022-09-09T22:11:38.907Z,7.97
2022-09-09T22:14:07.602Z,9.48
2022-09-09T22:16:36.331Z,7.70
2022-09-09T22:19:05.066Z,11.03
2022-09-09T22:21:34.982Z,8.98
2022-09-09T22:24:06.124Z,9.88
2022-09-09T22:26:36.846Z,10.10
2022-09-09T22:29:05.962Z,8.95
2022-09-09T22:31:36.168Z,9.10
2022-09-09T22:34:05.084Z,10.82
2022-09-09T22:36:35.342Z,11.68
2022-09-09T22:39:04.769Z,12.02
2022-09-09T22:41:33.899Z,9.95
2022-09-09T22:44:02.526Z,9.88
2022-09-09T22:46:31.063Z,11.65
2022-09-09T22:48:59.562Z,12.13
2022-09-09T22:51:28.073Z,13.55
2022-09-09T22:53:58.246Z,11.48
2022-09-09T22:56:26.887Z,9.65
2022-09-09T22:58:57.042Z,9.70
2022-09-09T23:01:27.293Z,9.75
2022-09-09T23:03:59.267Z,8.70
2022-09-09T23:06:29.350Z,7.47
2022-09-09T23:09:01.292Z,6.45
2022-09-09T23:11:31.621Z,4.88
2022-09-09T23:14:02.319Z,6.50
2022-09-09T23:16:33.867Z,3.50
2022-09-09T23:19:03.373Z,3.97
2022-09-09T23:21:32.944Z,4.03
2022-09-09T23:24:03.245Z,2.95
2022-09-09T23:26:32.109Z,1.85
2022-09-09T23:29:02.372Z,1.52
2022-09-09T23:31:33.101Z,1.48
2022-09-09T23:34:02.603Z,3.70
2022-09-09T23:36:31.486Z,0.40
2022-09-09T23:39:03.716Z,1.33
2022-09-09T23:41:35.351Z,2.78
2022-09-09T23:44:05.102Z,1.50
2022-09-09T23:46:35.564Z,1.45
2022-09-09T23:49:09.634Z,1.75
2022-09-09T23:51:38.938Z,0.82
2022-09-09T23:54:09.823Z,3.08
2022-09-09T23:56:42.469Z,3.40
2022-09-09T23:59:11.320Z,2.58
